createdAt,value
2023-11-21T00:00:18.776Z,9.39
2023-11-21T00:02:47.099Z,9.47
2023-11-21T00:05:16.107Z,9.51
2023-11-21T00:07:46.108Z,9.56
2023-11-21T00:10:16.911Z,9.59
2023-11-21T00:12:45.020Z,9.64
2023-11-21T00:15:16.417Z,9.64
2023-11-21T00:17:44.707Z,9.68
2023-11-21T00:20:15.109Z,9.66
2023-11-21T00:22:43.810Z,9.68
2023-11-21T00:25:16.096Z,9.66
2023-11-21T00:27:44.084Z,9.73
2023-11-21T00:30:14.212Z,9.71
2023-11-21T00:32:42.088Z,9.68
2023-11-21T00:35:10.236Z,9.67
2023-11-21T00:37:40.042Z,9.64
2023-11-21T00:40:10.285Z,9.64
2023-11-21T00:42:39.487Z,9.62
2023-11-21T00:45:09.071Z,9.66
2023-11-21T00:47:36.763Z,9.70
2023-11-21T00:50:07.044Z,9.75
2023-11-21T00:52:34.716Z,9.75
2023-11-21T00:55:02.641Z,9.77
2023-11-21T00:57:30.455Z,9.76
2023-11-21T00:59:59.431Z,9.80
2023-11-21T01:02:27.370Z,9.83
2023-11-21T01:04:54.957Z,9.79
2023-11-21T01:07:23.577Z,9.76
2023-11-21T01:09:52.177Z,9.80
2023-11-21T01:12:19.960Z,9.75
2023-11-21T01:14:47.602Z,9.77
2023-11-21T01:17:16.595Z,9.75
2023-11-21T01:19:44.324Z,9.77
2023-11-21T01:22:13.051Z,9.78
2023-11-21T01:24:41.274Z,9.80
2023-11-21T01:27:09.891Z,9.75
2023-11-21T01:29:37.520Z,9.73
2023-11-21T01:32:05.676Z,9.72
2023-11-21T01:34:34.816Z,9.70
2023-11-21T01:37:02.455Z,9.70
2023-11-21T01:39:30.103Z,9.72
2023-11-21T01:41:59.353Z,9.73
2023-11-21T01:44:26.972Z,9.68
2023-11-21T01:46:54.855Z,9.73
2023-11-21T01:49:22.803Z,9.76
2023-11-21T01:51:53.142Z,9.77
2023-11-21T01:54:22.506Z,9.73
2023-11-21T01:56:50.295Z,9.71
2023-11-21T01:59:22.375Z,9.71
2023-11-21T02:01:51.488Z,9.73
2023-11-21T02:04:19.985Z,9.68
2023-11-21T02:06:47.693Z,9.68
2023-11-21T02:09:19.542Z,9.64
2023-11-21T02:11:47.126Z,9.63
2023-11-21T02:14:15.320Z,9.65
2023-11-21T02:16:45.285Z,9.66
2023-11-21T02:19:17.329Z,9.60
2023-11-21T02:21:45.923Z,9.56
2023-11-21T02:24:14.906Z,9.59
2023-11-21T02:26:43.068Z,9.55
2023-11-21T02:29:12.992Z,9.49
2023-11-21T02:31:48.978Z,9.34
2023-11-21T02:34:17.957Z,9.28
2023-11-21T02:36:46.478Z,9.27
2023-11-21T02:39:15.474Z,9.21
2023-11-21T02:41:43.131Z,9.16
2023-11-21T02:44:11.195Z,9.08
2023-11-21T02:46:40.641Z,9.03
2023-11-21T02:49:08.572Z,9.00
2023-11-21T02:51:37.070Z,8.96
2023-11-21T02:54:07.653Z,8.92
2023-11-21T02:56:38.472Z,8.92
2023-11-21T02:59:06.248Z,8.94
2023-11-21T03:01:34.074Z,8.89
2023-11-21T03:04:02.766Z,8.86
2023-11-21T03:06:30.488Z,8.89
2023-11-21T03:08:58.108Z,8.94
2023-11-21T03:11:25.752Z,8.90
2023-11-21T03:13:54.863Z,8.92
2023-11-21T03:16:22.673Z,8.89
2023-11-21T03:18:50.490Z,8.92
2023-11-21T03:21:18.161Z,8.92
2023-11-21T03:23:46.132Z,8.91
2023-11-21T03:26:14.859Z,8.93
2023-11-21T03:28:42.571Z,8.93
2023-11-21T03:31:11.723Z,8.91
2023-11-21T03:33:39.430Z,8.92
2023-11-21T03:36:08.892Z,8.94
2023-11-21T03:38:36.531Z,8.94
2023-11-21T03:41:04.222Z,8.96
2023-11-21T03:43:31.844Z,8.99
2023-11-21T03:45:59.539Z,9.01
2023-11-21T03:48:28.710Z,8.99
2023-11-21T03:50:56.420Z,9.02
2023-11-21T03:53:24.107Z,8.99
2023-11-21T03:55:51.913Z,8.95
2023-11-21T03:58:19.912Z,8.97
2023-11-21T04:00:50.063Z,8.97
2023-11-21T04:03:17.846Z,8.96
2023-11-21T04:05:47.132Z,8.96
2023-11-21T04:08:14.895Z,8.99
2023-11-21T04:10:43.207Z,8.99
2023-11-21T04:13:11.542Z,9.00
2023-11-21T04:15:39.155Z,8.97
2023-11-21T04:18:06.930Z,9.00
2023-11-21T04:20:34.873Z,9.03
2023-11-21T04:23:04.395Z,9.06
2023-11-21T04:25:31.964Z,9.11
2023-11-21T04:27:59.565Z,9.11
2023-11-21T04:30:27.184Z,9.09
2023-11-21T04:32:54.771Z,9.13
2023-11-21T04:35:22.392Z,9.12
2023-11-21T04:37:49.987Z,9.11
2023-11-21T04:40:19.137Z,9.18
2023-11-21T04:42:47.731Z,9.15
2023-11-21T04:45:15.317Z,9.15
2023-11-21T04:47:44.703Z,9.16
2023-11-21T04:50:12.393Z,9.13
2023-11-21T04:52:40.150Z,9.18
2023-11-21T04:55:11.088Z,9.13
2023-11-21T04:57:40.477Z,9.14
2023-11-21T05:00:09.740Z,9.14
2023-11-21T05:02:37.413Z,9.27
2023-11-21T05:05:07.011Z,9.26
2023-11-21T05:07:36.829Z,9.23
2023-11-21T05:10:08.953Z,9.26
2023-11-21T05:12:40.662Z,9.23
2023-11-21T05:15:11.832Z,9.25
2023-11-21T05:17:43.226Z,9.30
2023-11-21T05:20:12.609Z,9.21
2023-11-21T05:22:40.259Z,9.13
2023-11-21T05:25:09.438Z,9.15
2023-11-21T05:27:37.163Z,9.12
2023-11-21T05:30:06.500Z,9.10
2023-11-21T05:32:36.050Z,9.07
2023-11-21T05:35:03.806Z,9.08
2023-11-21T05:37:31.716Z,9.13
2023-11-21T05:39:59.293Z,9.11
2023-11-21T05:42:26.908Z,9.05
2023-11-21T05:44:54.539Z,9.02
2023-11-21T05:47:23.059Z,9.04
2023-11-21T05:49:53.129Z,9.07
2023-11-21T05:52:21.709Z,9.07
2023-11-21T05:54:49.348Z,9.07
2023-11-21T05:57:16.966Z,9.06
2023-11-21T05:59:44.690Z,9.07
2023-11-21T06:02:12.393Z,9.04
2023-11-21T06:04:40.212Z,9.05
2023-11-21T06:07:09.601Z,9.03
2023-11-21T06:09:38.361Z,9.03
2023-11-21T06:12:06.796Z,9.03
2023-11-21T06:14:36.350Z,8.97
2023-11-21T06:17:05.070Z,8.91
2023-11-21T06:19:32.779Z,8.85
2023-11-21T06:22:00.683Z,8.84
2023-11-21T06:24:29.951Z,8.88
2023-11-21T06:26:57.599Z,8.82
2023-11-21T06:29:25.209Z,8.81
2023-11-21T06:31:52.999Z,8.85
2023-11-21T06:34:21.157Z,8.82
2023-11-21T06:36:48.747Z,8.84
2023-11-21T06:39:18.021Z,8.84
2023-11-21T06:41:47.008Z,8.83
2023-11-21T06:44:14.812Z,8.79
2023-11-21T06:46:43.625Z,8.83
2023-11-21T06:49:12.131Z,8.85
2023-11-21T06:51:39.791Z,8.86
2023-11-21T06:54:08.305Z,8.93
2023-11-21T06:56:36.880Z,9.05
2023-11-21T06:59:06.740Z,9.11
2023-11-21T07:01:39.762Z,9.20
2023-11-21T07:04:07.765Z,9.24
2023-11-21T07:06:35.457Z,9.27
2023-11-21T07:09:04.352Z,9.26
2023-11-21T07:11:32.110Z,9.19
2023-11-21T07:13:59.841Z,9.15
2023-11-21T07:16:28.909Z,9.17
2023-11-21T07:18:57.086Z,9.26
2023-11-21T07:21:25.525Z,9.24
2023-11-21T07:23:53.224Z,9.25
2023-11-21T07:26:20.897Z,9.24
2023-11-21T07:28:48.565Z,9.18
2023-11-21T07:31:16.206Z,9.06
2023-11-21T07:33:45.221Z,9.15
2023-11-21T07:36:13.006Z,9.09
2023-11-21T07:38:41.031Z,9.05
2023-11-21T07:41:19.067Z,9.07
2023-11-21T07:43:53.548Z,9.01
2023-11-21T07:46:22.143Z,9.03
2023-11-21T07:48:51.203Z,9.13
2023-11-21T07:51:18.800Z,9.17
2023-11-21T07:53:46.438Z,9.11
2023-11-21T07:56:14.206Z,9.04
2023-11-21T07:58:42.035Z,9.04
2023-11-21T08:01:10.052Z,9.09
2023-11-21T08:03:37.754Z,9.01
2023-11-21T08:06:07.585Z,9.03
2023-11-21T08:08:35.229Z,9.04
2023-11-21T08:11:04.849Z,9.09
2023-11-21T08:13:32.754Z,9.20
2023-11-21T08:16:03.887Z,9.26
2023-11-21T08:18:31.782Z,9.13
2023-11-21T08:20:59.588Z,9.13
2023-11-21T08:23:29.520Z,9.13
2023-11-21T08:25:57.452Z,9.12
2023-11-21T08:28:26.823Z,9.23
2023-11-21T08:30:55.165Z,9.36
2023-11-21T08:33:22.772Z,9.45
2023-11-21T08:35:51.447Z,9.64
2023-11-21T08:38:19.541Z,10.01
2023-11-21T08:40:48.519Z,10.00
2023-11-21T08:43:17.453Z,9.88
2023-11-21T08:45:45.104Z,9.80
2023-11-21T08:48:13.317Z,9.73
2023-11-21T08:50:40.870Z,9.67
2023-11-21T08:53:08.510Z,9.65
2023-11-21T08:55:38.525Z,9.55
2023-11-21T08:58:07.837Z,9.38
2023-11-21T09:00:35.530Z,9.30
2023-11-21T09:03:03.692Z,9.35
2023-11-21T09:05:31.294Z,9.44
2023-11-21T09:07:58.954Z,9.57
2023-11-21T09:10:26.958Z,9.48
2023-11-21T09:12:54.563Z,9.48
2023-11-21T09:15:23.591Z,9.47
2023-11-21T09:17:51.259Z,9.45
2023-11-21T09:20:18.912Z,9.48
2023-11-21T09:22:47.485Z,9.50
2023-11-21T09:25:15.445Z,9.56
2023-11-21T09:27:43.095Z,9.65
2023-11-21T09:30:11.864Z,9.59
2023-11-21T09:32:41.530Z,9.62
2023-11-21T09:35:10.292Z,9.72
2023-11-21T09:37:39.095Z,9.74
2023-11-21T09:40:13.582Z,9.88
2023-11-21T09:42:44.828Z,9.88
2023-11-21T09:45:21.044Z,9.91
2023-11-21T09:47:50.416Z,9.95
2023-11-21T09:50:19.955Z,9.95
2023-11-21T09:52:56.831Z,9.99
2023-11-21T09:55:27.819Z,9.98
2023-11-21T09:57:57.958Z,10.01
2023-11-21T10:00:25.853Z,10.32
2023-11-21T10:02:56.174Z,10.32
2023-11-21T10:05:26.109Z,10.34
2023-11-21T10:07:58.387Z,10.49
2023-11-21T10:10:27.777Z,10.60
2023-11-21T10:12:58.363Z,10.66
2023-11-21T10:15:27.203Z,10.71
2023-11-21T10:17:57.382Z,10.63
2023-11-21T10:20:25.831Z,10.81
2023-11-21T10:22:53.456Z,10.77
2023-11-21T10:25:21.687Z,11.01
2023-11-21T10:27:52.252Z,10.79
2023-11-21T10:30:20.445Z,10.79
2023-11-21T10:32:48.727Z,10.79
2023-11-21T10:35:17.745Z,10.70
2023-11-21T10:37:45.535Z,10.65
2023-11-21T10:40:14.203Z,10.59
2023-11-21T10:42:42.831Z,10.53
2023-11-21T10:45:14.400Z,10.41
2023-11-21T10:47:44.187Z,10.27
2023-11-21T10:50:13.164Z,10.19
2023-11-21T10:52:44.515Z,10.12
2023-11-21T10:55:20.150Z,10.13
2023-11-21T10:57:50.535Z,10.16
2023-11-21T11:00:21.504Z,10.12
2023-11-21T11:02:51.686Z,10.06
2023-11-21T11:05:21.906Z,10.06
2023-11-21T11:07:55.507Z,9.98
2023-11-21T11:10:27.225Z,10.01
2023-11-21T11:12:56.401Z,9.98
2023-11-21T11:15:24.232Z,10.02
2023-11-21T11:17:52.058Z,10.31
2023-11-21T11:20:21.738Z,10.26
2023-11-21T11:23:01.400Z,10.20
2023-11-21T11:25:50.063Z,10.11
2023-11-21T11:28:24.666Z,10.12
2023-11-21T11:31:06.718Z,10.04
2023-11-21T11:33:41.795Z,10.04
2023-11-21T11:36:19.387Z,10.07
2023-11-21T11:38:50.678Z,10.08
2023-11-21T11:41:27.788Z,10.14
2023-11-21T11:43:55.523Z,10.14
2023-11-21T11:46:42.909Z,10.16
2023-11-21T11:49:10.923Z,10.12
2023-11-21T11:51:38.630Z,10.09
2023-11-21T11:54:08.817Z,10.07
2023-11-21T11:56:38.354Z,10.03
2023-11-21T11:59:10.014Z,9.96
2023-11-21T12:01:37.765Z,10.04
2023-11-21T12:04:32.665Z,10.12
2023-11-21T12:07:04.580Z,10.12
2023-11-21T12:09:33.996Z,10.14
2023-11-21T12:12:02.172Z,10.20
2023-11-21T12:14:29.960Z,10.21
2023-11-21T12:16:57.658Z,10.26
2023-11-21T12:19:25.428Z,10.15
2023-11-21T12:21:53.283Z,10.15
2023-11-21T12:24:20.836Z,10.20
2023-11-21T12:26:49.773Z,10.20
2023-11-21T12:29:17.801Z,10.22
2023-11-21T12:31:47.155Z,10.27
2023-11-21T12:34:14.842Z,10.24
2023-11-21T12:36:42.466Z,10.30
2023-11-21T12:39:11.780Z,10.30
2023-11-21T12:41:39.463Z,10.15
2023-11-21T12:44:16.347Z,10.19
2023-11-21T12:46:46.206Z,10.20
2023-11-21T12:49:18.252Z,10.18
2023-11-21T12:51:46.957Z,10.13
2023-11-21T12:54:15.022Z,10.12
2023-11-21T12:56:42.742Z,10.13
2023-11-21T12:59:15.558Z,10.19
2023-11-21T13:01:44.574Z,10.15
2023-11-21T13:04:12.887Z,10.19
2023-11-21T13:06:42.109Z,10.23
2023-11-21T13:09:11.570Z,10.22
2023-11-21T13:11:41.895Z,10.19
2023-11-21T13:14:12.159Z,10.16
2023-11-21T13:16:46.886Z,10.10
2023-11-21T13:19:14.833Z,10.05
2023-11-21T13:21:42.504Z,10.04
2023-11-21T13:24:11.176Z,10.08
2023-11-21T13:26:38.729Z,10.11
2023-11-21T13:29:06.549Z,10.18
2023-11-21T13:31:37.719Z,10.25
2023-11-21T13:34:09.257Z,10.32
2023-11-21T13:36:37.397Z,10.33
2023-11-21T13:39:09.003Z,10.41
2023-11-21T13:41:39.093Z,10.45
2023-11-21T13:44:16.864Z,10.54
2023-11-21T13:46:46.681Z,10.63
2023-11-21T13:49:17.188Z,10.69
2023-11-21T13:51:46.440Z,10.78
2023-11-21T13:54:14.346Z,10.85
2023-11-21T13:56:45.707Z,11.00
2023-11-21T13:59:24.705Z,11.17
2023-11-21T14:02:00.560Z,11.29
2023-11-21T14:04:55.491Z,11.41
2023-11-21T14:07:31.337Z,11.57
2023-11-21T14:09:59.510Z,11.76
2023-11-21T14:12:27.091Z,11.90
2023-11-21T14:14:56.082Z,12.02
2023-11-21T14:17:25.305Z,11.92
2023-11-21T14:19:56.592Z,11.88
2023-11-21T14:22:26.764Z,11.86
2023-11-21T14:24:56.770Z,11.77
2023-11-21T14:27:24.520Z,11.61
2023-11-21T14:29:53.704Z,11.53
2023-11-21T14:32:21.485Z,11.48
2023-11-21T14:34:49.380Z,11.45
2023-11-21T14:37:18.404Z,11.31
2023-11-21T14:39:49.788Z,11.31
2023-11-21T14:42:22.462Z,11.28
2023-11-21T14:44:50.013Z,11.14
2023-11-21T14:47:18.067Z,11.08
2023-11-21T14:49:55.036Z,11.09
2023-11-21T14:52:34.195Z,11.00
2023-11-21T14:55:16.164Z,10.98
2023-11-21T14:57:47.034Z,10.90
2023-11-21T15:00:32.633Z,10.85
2023-11-21T15:03:00.356Z,10.80
2023-11-21T15:05:28.617Z,10.79
2023-11-21T15:07:58.757Z,10.78
2023-11-21T15:10:39.242Z,10.76
2023-11-21T15:13:06.077Z,10.74
2023-11-21T15:15:35.649Z,10.66
2023-11-21T15:18:03.656Z,10.60
2023-11-21T15:20:32.233Z,10.58
2023-11-21T15:23:01.638Z,10.56
2023-11-21T15:25:29.329Z,10.56
2023-11-21T15:27:57.100Z,10.49
2023-11-21T15:30:26.389Z,10.44
2023-11-21T15:32:54.816Z,10.48
2023-11-21T15:35:22.557Z,10.46
2023-11-21T15:37:50.141Z,10.46
2023-11-21T15:40:19.106Z,10.41
2023-11-21T15:42:46.975Z,10.38
2023-11-21T15:45:14.661Z,10.33
2023-11-21T15:47:42.331Z,10.27
2023-11-21T15:50:11.571Z,10.22
2023-11-21T15:52:56.447Z,10.15
2023-11-21T15:55:27.949Z,10.09
2023-11-21T15:57:55.619Z,10.06
2023-11-21T16:00:25.216Z,10.03
2023-11-21T16:02:55.588Z,10.02
2023-11-21T16:05:25.338Z,10.01
2023-11-21T16:07:52.959Z,9.96
2023-11-21T16:10:20.638Z,9.91
2023-11-21T16:12:49.594Z,9.86
2023-11-21T16:15:19.159Z,9.83
2023-11-21T16:17:46.972Z,9.80
2023-11-21T16:20:16.140Z,9.73
2023-11-21T16:22:43.842Z,9.68
2023-11-21T16:25:14.016Z,9.64
2023-11-21T16:27:43.209Z,9.59
2023-11-21T16:30:13.511Z,9.52
2023-11-21T16:32:41.398Z,9.48
2023-11-21T16:35:11.084Z,9.40
2023-11-21T16:37:38.794Z,9.37
2023-11-21T16:40:09.714Z,9.32
2023-11-21T16:42:39.276Z,9.28
2023-11-21T16:45:08.911Z,9.23
2023-11-21T16:47:38.853Z,9.18
2023-11-21T16:50:07.410Z,9.11
2023-11-21T16:52:35.095Z,9.06
2023-11-21T16:55:02.737Z,9.00
2023-11-21T16:57:30.577Z,8.99
2023-11-21T16:59:58.583Z,8.96
2023-11-21T17:02:26.425Z,8.87
2023-11-21T17:04:55.435Z,8.85
2023-11-21T17:07:24.032Z,8.83
2023-11-21T17:09:52.719Z,8.78
2023-11-21T17:12:20.399Z,8.73
2023-11-21T17:14:50.038Z,8.68
2023-11-21T17:17:18.070Z,8.65
2023-11-21T17:19:46.039Z,8.60
2023-11-21T17:22:16.244Z,8.58
2023-11-21T17:24:44.978Z,8.54
2023-11-21T17:27:12.666Z,8.49
2023-11-21T17:29:40.694Z,8.45
2023-11-21T17:32:08.912Z,8.41
2023-11-21T17:34:36.617Z,8.37
2023-11-21T17:37:05.144Z,8.35
2023-11-21T17:39:34.070Z,8.33
2023-11-21T17:42:02.608Z,8.31
2023-11-21T17:44:30.237Z,8.29
2023-11-21T17:46:58.195Z,8.30
2023-11-21T17:49:27.365Z,8.31
2023-11-21T17:51:56.145Z,8.33
2023-11-21T17:54:24.384Z,8.33
2023-11-21T17:56:53.518Z,8.33
2023-11-21T17:59:21.197Z,8.35
2023-11-21T18:01:49.174Z,8.33
2023-11-21T18:04:16.957Z,8.34
2023-11-21T18:06:45.501Z,8.40
2023-11-21T18:09:13.317Z,8.38
2023-11-21T18:11:40.935Z,8.38
2023-11-21T18:14:11.700Z,8.36
2023-11-21T18:16:40.147Z,8.34
2023-11-21T18:19:09.530Z,8.33
2023-11-21T18:21:41.528Z,8.34
2023-11-21T18:24:10.523Z,8.37
2023-11-21T18:26:38.480Z,8.39
2023-11-21T18:29:06.454Z,8.40
2023-11-21T18:31:35.446Z,8.41
2023-11-21T18:34:03.109Z,8.41
2023-11-21T18:36:30.714Z,8.41
2023-11-21T18:38:59.002Z,8.36
2023-11-21T18:41:26.632Z,8.37
2023-11-21T18:43:54.925Z,8.35
2023-11-21T18:46:23.084Z,8.33
2023-11-21T18:48:53.140Z,8.36
2023-11-21T18:51:20.852Z,8.34
2023-11-21T18:53:48.515Z,8.34
2023-11-21T18:56:25.451Z,8.32
2023-11-21T18:58:53.736Z,8.34
2023-11-21T19:01:28.733Z,8.36
2023-11-21T19:03:58.908Z,8.38
2023-11-21T19:06:27.580Z,8.41
2023-11-21T19:08:55.668Z,8.41
2023-11-21T19:11:24.238Z,8.39
2023-11-21T19:13:54.245Z,8.39
2023-11-21T19:16:22.396Z,8.39
2023-11-21T19:18:50.983Z,8.41
2023-11-21T19:21:20.761Z,8.41
2023-11-21T19:23:49.702Z,8.41
2023-11-21T19:26:17.384Z,8.40
2023-11-21T19:28:45.224Z,8.38
2023-11-21T19:31:17.469Z,8.36
2023-11-21T19:33:45.639Z,8.39
2023-11-21T19:36:13.418Z,8.40
2023-11-21T19:38:43.219Z,8.42
2023-11-21T19:41:14.942Z,8.43
2023-11-21T19:43:42.779Z,8.42
2023-11-21T19:46:10.483Z,8.42
2023-11-21T19:48:38.509Z,8.41
2023-11-21T19:51:06.302Z,8.40
2023-11-21T19:53:37.849Z,8.40
2023-11-21T19:56:10.405Z,8.43
2023-11-21T19:58:38.482Z,8.42
2023-11-21T20:01:06.111Z,8.40
2023-11-21T20:03:36.073Z,8.40
2023-11-21T20:06:05.086Z,8.40
2023-11-21T20:08:35.451Z,8.43
2023-11-21T20:11:03.167Z,8.47
2023-11-21T20:13:32.346Z,8.50
2023-11-21T20:16:00.506Z,8.50
2023-11-21T20:18:28.235Z,8.47
2023-11-21T20:20:57.072Z,8.43
2023-11-21T20:23:25.845Z,8.41
2023-11-21T20:25:58.671Z,8.41
2023-11-21T20:28:27.268Z,8.46
2023-11-21T20:30:58.165Z,8.63
2023-11-21T20:33:26.283Z,8.75
2023-11-21T20:35:53.954Z,8.75
2023-11-21T20:38:23.643Z,8.76
2023-11-21T20:40:51.363Z,8.74
2023-11-21T20:43:18.980Z,8.73
2023-11-21T20:45:46.561Z,8.72
2023-11-21T20:48:16.039Z,8.73
2023-11-21T20:50:44.291Z,8.71
2023-11-21T20:53:12.441Z,8.67
2023-11-21T20:55:40.409Z,8.65
2023-11-21T20:58:09.176Z,8.66
2023-11-21T21:00:36.957Z,8.67
2023-11-21T21:03:07.622Z,8.65
2023-11-21T21:05:37.348Z,8.62
2023-11-21T21:08:05.649Z,8.65
2023-11-21T21:10:33.310Z,8.65
2023-11-21T21:13:00.945Z,8.66
2023-11-21T21:15:29.070Z,8.68
2023-11-21T21:17:57.219Z,8.67
2023-11-21T21:20:25.197Z,8.65
2023-11-21T21:22:54.387Z,8.61
2023-11-21T21:25:22.078Z,8.59
2023-11-21T21:27:50.805Z,8.60
2023-11-21T21:30:19.352Z,8.63
2023-11-21T21:32:48.123Z,8.65
2023-11-21T21:35:16.458Z,8.69
2023-11-21T21:37:44.541Z,8.68
2023-11-21T21:40:13.832Z,8.68
2023-11-21T21:42:41.416Z,8.69
2023-11-21T21:45:09.915Z,8.63
2023-11-21T21:47:37.549Z,8.68
2023-11-21T21:50:06.018Z,8.65
2023-11-21T21:52:37.602Z,8.63
2023-11-21T21:55:06.918Z,8.65
2023-11-21T21:57:35.914Z,8.63
2023-11-21T22:00:03.610Z,8.63
2023-11-21T22:02:39.704Z,8.63
2023-11-21T22:05:11.093Z,8.63
2023-11-21T22:07:39.824Z,8.62
2023-11-21T22:10:09.081Z,8.65
2023-11-21T22:12:38.191Z,8.65
2023-11-21T22:15:06.610Z,8.66
2023-11-21T22:17:34.327Z,8.66
2023-11-21T22:20:01.997Z,8.69
2023-11-21T22:22:29.713Z,8.69
2023-11-21T22:24:57.342Z,8.72
2023-11-21T22:27:25.084Z,8.72
2023-11-21T22:29:54.105Z,8.70
2023-11-21T22:32:22.862Z,8.69
2023-11-21T22:34:50.504Z,8.67
2023-11-21T22:37:18.461Z,8.68
2023-11-21T22:39:46.579Z,8.66
2023-11-21T22:42:14.272Z,8.68
2023-11-21T22:44:43.850Z,8.71
2023-11-21T22:47:13.072Z,8.72
2023-11-21T22:49:40.812Z,8.76
2023-11-21T22:52:08.545Z,8.77
2023-11-21T22:54:36.354Z,8.78
2023-11-21T22:57:04.144Z,8.76
2023-11-21T22:59:31.898Z,8.77
2023-11-21T23:01:59.625Z,8.78
2023-11-21T23:04:28.680Z,8.78
2023-11-21T23:06:56.316Z,8.75
2023-11-21T23:09:24.223Z,8.76
2023-11-21T23:11:51.862Z,8.78
2023-11-21T23:14:19.583Z,8.76
2023-11-21T23:16:49.414Z,8.72
2023-11-21T23:19:18.430Z,8.72
2023-11-21T23:21:47.388Z,8.73
2023-11-21T23:24:20.434Z,8.68
2023-11-21T23:26:49.414Z,8.67
2023-11-21T23:29:16.936Z,8.65
2023-11-21T23:31:44.882Z,8.62
2023-11-21T23:34:12.977Z,8.63
2023-11-21T23:36:40.955Z,8.62
2023-11-21T23:39:09.914Z,8.53
2023-11-21T23:41:37.518Z,8.45
2023-11-21T23:44:05.761Z,8.38
2023-11-21T23:46:35.404Z,8.32
2023-11-21T23:49:04.865Z,8.27
2023-11-21T23:51:32.539Z,8.26
2023-11-21T23:54:00.256Z,8.16
2023-11-21T23:56:29.281Z,8.07
2023-11-21T23:58:57.621Z,7.99
